CYZP

Sandspit Airport

Sandspit, , Canada
TAF CYZP 251238Z 2513/2601 26007KT P6SM SCT050 SCT240 RMK FCST BASED ON AUTO OBS. NXT FCST BY 251900Z
Issued Valid From Valid To
Sep-25 @ 12:38 UTC
(5 hours ago)
Sep-25 @ 13:00 UTC
(5 hours ago)
Sep-26 @ 01:00 UTC
(in 7 hours)
Sep-25 @ 13:00 to Sep-26 @ 01:00
TAF CYZP 251238Z 2513/2601 26007KT P6SM SCT050 SCT240 RMK FCST BASED ON AUTO OBS. NXT FCST BY 251900Z
Wind Visibility Clouds
260° at 7 knots Greater than 6 miles
  • Scattered at 5,000' AGL
  • Scattered at 24,000' AGL
TAF CYZP 251238Z 2513/2601 26007KT P6SM SCT050 SCT240 RMK FCST BASED ON AUTO OBS. NXT FCST BY 251900Z
Issued Sep-25 @ 12:38 UTC
(5 hours ago)
Valid From Sep-25 @ 13:00 UTC
(5 hours ago)
Valid To Sep-26 @ 01:00 UTC
(in 7 hours)
Sep-25 @ 13:00 - Sep-26 @ 01:00
Wind Visibility
260° at 7 knots Greater than 6 miles
Clouds
  • Scattered at 5,000' AGL
  • Scattered at 24,000' AGL